createdAt,value
2018-04-24T00:00:05.692Z,938.67
2018-04-24T00:01:05.706Z,938.68
2018-04-24T00:02:05.714Z,938.64
2018-04-24T00:03:05.748Z,938.64
2018-04-24T00:04:05.768Z,938.63
2018-04-24T00:05:05.783Z,938.65
2018-04-24T00:06:05.770Z,938.71
2018-04-24T00:07:05.811Z,938.68
2018-04-24T00:08:05.932Z,938.72
2018-04-24T00:09:05.835Z,938.67
2018-04-24T00:10:05.841Z,938.71
2018-04-24T00:11:05.890Z,938.71
2018-04-24T00:12:05.874Z,938.71
2018-04-24T00:13:05.882Z,938.74
2018-04-24T00:14:05.925Z,938.70
2018-04-24T00:15:05.919Z,938.70
2018-04-24T00:16:05.929Z,938.74
2018-04-24T00:17:05.978Z,938.69
2018-04-24T00:18:05.963Z,938.72
2018-04-24T00:19:06.004Z,938.73
2018-04-24T00:20:06.000Z,938.74
2018-04-24T00:21:06.024Z,938.76
2018-04-24T00:22:06.050Z,938.76
2018-04-24T00:23:06.058Z,938.73
2018-04-24T00:24:06.059Z,938.73
2018-04-24T00:25:06.090Z,938.74
2018-04-24T00:26:06.145Z,938.75
2018-04-24T00:27:06.117Z,938.72
2018-04-24T00:28:06.130Z,938.73
2018-04-24T00:29:06.142Z,938.76
2018-04-24T00:30:06.181Z,938.73
2018-04-24T00:31:06.169Z,938.76
2018-04-24T00:32:06.202Z,938.74
2018-04-24T00:33:06.201Z,938.73
2018-04-24T00:34:06.221Z,938.75
2018-04-24T00:35:06.245Z,938.72
2018-04-24T00:36:06.258Z,938.77
2018-04-24T00:37:06.263Z,938.74
2018-04-24T00:38:06.580Z,938.79
2018-04-24T00:39:06.296Z,938.75
2018-04-24T00:40:06.335Z,938.78
2018-04-24T00:41:06.337Z,938.74
2018-04-24T00:42:06.339Z,938.77
2018-04-24T00:43:06.363Z,938.78
2018-04-24T00:44:06.375Z,938.77
2018-04-24T00:45:06.391Z,938.78
2018-04-24T00:46:06.409Z,938.79
2018-04-24T00:47:06.432Z,938.78
2018-04-24T00:48:06.448Z,938.76
2018-04-24T00:49:06.449Z,938.74
2018-04-24T00:50:06.465Z,938.75
2018-04-24T00:51:06.505Z,938.75
2018-04-24T00:52:06.497Z,938.73
2018-04-24T00:53:06.542Z,938.78
2018-04-24T00:54:06.534Z,938.75
2018-04-24T00:55:06.549Z,938.76
2018-04-24T00:56:06.566Z,938.75
2018-04-24T00:57:07.181Z,938.73
2018-04-24T00:58:06.604Z,938.73
2018-04-24T00:59:06.620Z,938.72
2018-04-24T01:00:06.621Z,938.71
2018-04-24T01:01:06.667Z,938.70
2018-04-24T01:02:06.653Z,938.75
2018-04-24T01:03:06.672Z,938.74
2018-04-24T01:04:06.680Z,938.72
2018-04-24T01:05:06.702Z,938.73
2018-04-24T01:06:06.923Z,938.70
2018-04-24T01:07:06.733Z,938.72
2018-04-24T01:08:06.748Z,938.73
2018-04-24T01:09:06.790Z,938.71
2018-04-24T01:10:06.796Z,938.71
2018-04-24T01:11:06.796Z,938.70
2018-04-24T01:12:06.823Z,938.70
2018-04-24T01:13:06.825Z,938.69
2018-04-24T01:14:06.846Z,938.68
2018-04-24T01:15:06.854Z,938.69
2018-04-24T01:16:06.874Z,938.66
2018-04-24T01:17:06.916Z,938.64
2018-04-24T01:18:06.932Z,938.64
2018-04-24T01:19:06.945Z,938.62
2018-04-24T01:20:06.939Z,938.60
2018-04-24T01:21:06.965Z,938.60
2018-04-24T01:22:06.990Z,938.61
2018-04-24T01:23:06.977Z,938.61
2018-04-24T01:24:06.997Z,938.62
2018-04-24T01:25:07.009Z,938.64
2018-04-24T01:26:07.049Z,938.64
2018-04-24T01:27:07.040Z,938.65
2018-04-24T01:28:07.086Z,938.65
2018-04-24T01:29:07.097Z,938.69
2018-04-24T01:30:07.085Z,938.68
2018-04-24T01:31:07.108Z,938.70
2018-04-24T01:32:07.122Z,938.66
2018-04-24T01:33:07.233Z,938.68
2018-04-24T01:34:07.176Z,938.65
2018-04-24T01:35:07.177Z,938.71
2018-04-24T01:36:07.184Z,938.65
2018-04-24T01:37:07.206Z,938.64
2018-04-24T01:38:07.312Z,938.67
2018-04-24T01:39:07.228Z,938.65
2018-04-24T01:40:07.271Z,938.64
2018-04-24T01:41:07.269Z,938.66
2018-04-24T01:42:07.284Z,938.59
2018-04-24T01:43:07.390Z,938.62
2018-04-24T01:44:07.308Z,938.61
2018-04-24T01:45:07.316Z,938.62
2018-04-24T01:46:07.332Z,938.63
2018-04-24T01:47:07.381Z,938.62
2018-04-24T01:48:07.369Z,938.63
2018-04-24T01:49:07.402Z,938.62
2018-04-24T01:50:07.400Z,938.61
2018-04-24T01:51:07.412Z,938.58
2018-04-24T01:52:07.458Z,938.56
2018-04-24T01:53:07.438Z,938.56
2018-04-24T01:54:07.456Z,938.57
2018-04-24T01:55:07.484Z,938.58
2018-04-24T01:56:07.485Z,938.58
2018-04-24T01:57:07.527Z,938.56
2018-04-24T01:58:07.522Z,938.50
2018-04-24T01:59:07.558Z,938.53
2018-04-24T02:00:07.545Z,938.52
2018-04-24T02:01:07.560Z,938.46
2018-04-24T02:02:07.610Z,938.47
2018-04-24T02:03:07.694Z,938.50
2018-04-24T02:04:07.633Z,938.53
2018-04-24T02:05:07.623Z,938.50
2018-04-24T02:06:07.643Z,938.49
2018-04-24T02:07:07.680Z,938.51
2018-04-24T02:08:07.668Z,938.51
2018-04-24T02:09:07.710Z,938.50
2018-04-24T02:10:07.699Z,938.46
2018-04-24T02:11:07.739Z,938.51
2018-04-24T02:12:07.733Z,938.50
2018-04-24T02:13:07.758Z,938.44
2018-04-24T02:14:07.758Z,938.43
2018-04-24T02:15:07.779Z,938.43
2018-04-24T02:16:07.800Z,938.46
2018-04-24T02:17:07.806Z,938.38
2018-04-24T02:18:07.922Z,938.39
2018-04-24T02:19:07.852Z,938.41
2018-04-24T02:20:07.845Z,938.39
2018-04-24T02:21:07.889Z,938.38
2018-04-24T02:22:07.894Z,938.41
2018-04-24T02:23:07.897Z,938.43
2018-04-24T02:24:07.908Z,938.46
2018-04-24T02:25:07.928Z,938.42
2018-04-24T02:26:07.969Z,938.44
2018-04-24T02:27:07.957Z,938.42
2018-04-24T02:28:08.102Z,938.44
2018-04-24T02:29:08.018Z,938.39
2018-04-24T02:30:08.026Z,938.41
2018-04-24T02:31:08.031Z,938.41
2018-04-24T02:32:08.054Z,938.41
2018-04-24T02:33:08.075Z,938.38
2018-04-24T02:34:08.065Z,938.42
2018-04-24T02:35:08.076Z,938.39
2018-04-24T02:36:08.091Z,938.41
2018-04-24T02:37:08.136Z,938.39
2018-04-24T02:38:08.251Z,938.37
2018-04-24T02:39:08.141Z,938.38
2018-04-24T02:40:08.155Z,938.39
2018-04-24T02:41:08.171Z,938.39
2018-04-24T02:42:08.207Z,938.40
2018-04-24T02:43:08.228Z,938.36
2018-04-24T02:44:08.217Z,938.39
2018-04-24T02:45:08.257Z,938.38
2018-04-24T02:46:08.247Z,938.38
2018-04-24T02:47:08.254Z,938.37
2018-04-24T02:48:08.305Z,938.37
2018-04-24T02:49:08.292Z,938.35
2018-04-24T02:50:08.329Z,938.35
2018-04-24T02:51:08.323Z,938.33
2018-04-24T02:52:08.360Z,938.31
2018-04-24T02:53:08.398Z,938.33
2018-04-24T02:54:08.407Z,938.31
2018-04-24T02:55:08.380Z,938.29
2018-04-24T02:56:08.422Z,938.30
2018-04-24T02:57:08.438Z,938.28
2018-04-24T02:58:08.426Z,938.28
2018-04-24T02:59:08.441Z,938.25
2018-04-24T03:00:08.465Z,938.25
2018-04-24T03:01:08.474Z,938.23
2018-04-24T03:02:08.511Z,938.25
2018-04-24T03:03:08.529Z,938.24
2018-04-24T03:04:08.513Z,938.25
2018-04-24T03:05:08.535Z,938.19
2018-04-24T03:06:08.569Z,938.22
2018-04-24T03:07:08.561Z,938.23
2018-04-24T03:08:08.589Z,938.21
2018-04-24T03:09:08.589Z,938.22
2018-04-24T03:10:08.601Z,938.22
2018-04-24T03:11:08.647Z,938.24
2018-04-24T03:12:08.666Z,938.22
2018-04-24T03:13:08.691Z,938.23
2018-04-24T03:14:08.680Z,938.22
2018-04-24T03:15:08.679Z,938.19
2018-04-24T03:16:08.719Z,938.19
2018-04-24T03:17:08.711Z,938.24
2018-04-24T03:18:08.724Z,938.19
2018-04-24T03:19:08.734Z,938.16
2018-04-24T03:20:08.781Z,938.15
2018-04-24T03:21:08.775Z,938.17
2018-04-24T03:22:08.815Z,938.17
2018-04-24T03:23:08.822Z,938.13
2018-04-24T03:24:08.815Z,938.11
2018-04-24T03:25:08.839Z,938.14
2018-04-24T03:26:08.879Z,938.14
2018-04-24T03:27:08.886Z,938.09
2018-04-24T03:28:08.972Z,938.11
2018-04-24T03:29:08.896Z,938.10
2018-04-24T03:30:08.933Z,938.09
2018-04-24T03:31:08.943Z,938.10
2018-04-24T03:32:08.933Z,938.07
2018-04-24T03:33:08.963Z,938.06
2018-04-24T03:34:08.987Z,938.08
2018-04-24T03:35:09.006Z,938.05
2018-04-24T03:36:09.018Z,938.07
2018-04-24T03:37:09.041Z,938.08
2018-04-24T03:38:09.031Z,938.05
2018-04-24T03:39:09.069Z,938.03
2018-04-24T03:40:09.052Z,938.00
2018-04-24T03:41:09.095Z,938.02
2018-04-24T03:42:09.084Z,938.01
2018-04-24T03:43:09.229Z,938.02
2018-04-24T03:44:09.114Z,938.01
2018-04-24T03:45:09.134Z,938.00
2018-04-24T03:46:09.167Z,938.00
2018-04-24T03:47:09.181Z,937.93
2018-04-24T03:48:09.196Z,937.90
2018-04-24T03:49:09.196Z,937.89
2018-04-24T03:50:09.230Z,937.85
2018-04-24T03:51:09.243Z,937.84
2018-04-24T03:52:09.231Z,937.82
2018-04-24T03:53:09.344Z,937.83
2018-04-24T03:54:09.258Z,937.82
2018-04-24T03:55:09.302Z,937.77
2018-04-24T03:56:09.289Z,937.76
2018-04-24T03:57:09.314Z,937.80
2018-04-24T03:58:09.326Z,937.74
2018-04-24T03:59:09.358Z,937.74
2018-04-24T04:00:09.352Z,937.75
2018-04-24T04:01:09.396Z,937.75
2018-04-24T04:02:09.407Z,937.76
2018-04-24T04:03:09.394Z,937.79
2018-04-24T04:04:09.413Z,937.73
2018-04-24T04:05:09.424Z,937.73
2018-04-24T04:06:09.455Z,937.76
2018-04-24T04:07:09.479Z,937.73
2018-04-24T04:08:09.471Z,937.75
2018-04-24T04:09:09.506Z,937.74
2018-04-24T04:10:09.525Z,937.74
2018-04-24T04:11:09.525Z,937.70
2018-04-24T04:12:09.527Z,937.71
2018-04-24T04:13:09.555Z,937.72
2018-04-24T04:14:09.553Z,937.75
2018-04-24T04:15:09.568Z,937.74
2018-04-24T04:16:09.583Z,937.75
2018-04-24T04:17:09.629Z,937.76
2018-04-24T04:18:09.629Z,937.74
2018-04-24T04:19:09.656Z,937.73
2018-04-24T04:20:09.642Z,937.77
2018-04-24T04:21:09.661Z,937.72
2018-04-24T04:22:09.678Z,937.70
2018-04-24T04:23:09.685Z,937.66
2018-04-24T04:24:09.705Z,937.65
2018-04-24T04:25:09.731Z,937.62
2018-04-24T04:26:09.758Z,937.63
2018-04-24T04:27:09.757Z,937.58
2018-04-24T04:28:09.759Z,937.56
2018-04-24T04:29:09.803Z,937.55
2018-04-24T04:30:09.821Z,937.51
2018-04-24T04:31:09.818Z,937.50
2018-04-24T04:32:09.832Z,937.54
2018-04-24T04:33:09.943Z,937.48
2018-04-24T04:34:09.846Z,937.46
2018-04-24T04:35:09.861Z,937.45
2018-04-24T04:36:09.882Z,937.46
2018-04-24T04:37:09.904Z,937.49
2018-04-24T04:38:09.908Z,937.41
2018-04-24T04:39:09.932Z,937.38
2018-04-24T04:40:09.940Z,937.38
2018-04-24T04:41:09.948Z,937.39
2018-04-24T04:42:09.976Z,937.38
2018-04-24T04:43:10.083Z,937.36
2018-04-24T04:44:09.998Z,937.31
2018-04-24T04:45:10.013Z,937.29
2018-04-24T04:46:10.047Z,937.34
2018-04-24T04:47:10.045Z,937.32
2018-04-24T04:48:10.149Z,937.30
2018-04-24T04:49:10.078Z,937.29
2018-04-24T04:50:10.111Z,937.29
2018-04-24T04:51:10.100Z,937.27
2018-04-24T04:52:10.137Z,937.27
2018-04-24T04:53:10.152Z,937.23
2018-04-24T04:54:10.142Z,937.20
2018-04-24T04:55:10.158Z,937.19
2018-04-24T04:56:10.293Z,937.24
2018-04-24T04:57:10.183Z,937.20
2018-04-24T04:58:10.235Z,937.23
2018-04-24T04:59:10.246Z,937.18
2018-04-24T05:00:10.226Z,937.22
2018-04-24T05:01:10.243Z,937.23
2018-04-24T05:02:10.279Z,937.25
2018-04-24T05:03:10.298Z,937.20
2018-04-24T05:04:10.310Z,937.18
2018-04-24T05:05:10.361Z,937.16
2018-04-24T05:06:10.342Z,937.22
2018-04-24T05:07:10.333Z,937.16
2018-04-24T05:08:10.354Z,937.14
2018-04-24T05:09:10.377Z,937.15
2018-04-24T05:10:10.373Z,937.14
2018-04-24T05:11:10.394Z,937.14
2018-04-24T05:12:10.404Z,937.14
2018-04-24T05:13:10.434Z,937.12
2018-04-24T05:14:10.441Z,937.14
2018-04-24T05:15:10.450Z,937.14
2018-04-24T05:16:10.492Z,937.10
2018-04-24T05:17:10.477Z,937.12
2018-04-24T05:18:10.494Z,937.09
2018-04-24T05:19:10.517Z,937.11
2018-04-24T05:20:10.613Z,937.10
2018-04-24T05:21:10.556Z,937.10
2018-04-24T05:22:10.584Z,937.10
2018-04-24T05:23:10.565Z,937.06
2018-04-24T05:24:10.629Z,937.08
2018-04-24T05:25:10.593Z,937.06
2018-04-24T05:26:10.602Z,937.06
2018-04-24T05:27:10.623Z,937.10
2018-04-24T05:28:10.759Z,937.07
2018-04-24T05:29:10.651Z,937.03
2018-04-24T05:30:10.694Z,937.03
2018-04-24T05:31:10.715Z,937.02
2018-04-24T05:32:10.694Z,937.03
2018-04-24T05:33:10.705Z,937.04
2018-04-24T05:34:10.721Z,937.04
2018-04-24T05:35:10.745Z,937.02
2018-04-24T05:36:10.761Z,937.04
2018-04-24T05:37:10.766Z,937.00
2018-04-24T05:38:10.779Z,936.99
2018-04-24T05:39:10.793Z,936.94
2018-04-24T05:40:10.839Z,936.97
2018-04-24T05:41:10.850Z,936.93
2018-04-24T05:42:10.859Z,936.94
2018-04-24T05:43:10.848Z,936.92
2018-04-24T05:44:10.880Z,936.93
2018-04-24T05:45:10.881Z,936.89
2018-04-24T05:46:10.891Z,936.88
2018-04-24T05:47:10.919Z,936.88
2018-04-24T05:48:10.926Z,936.87
2018-04-24T05:49:10.946Z,936.85
2018-04-24T05:50:10.952Z,936.86
2018-04-24T05:51:10.961Z,936.83
2018-04-24T05:52:10.994Z,936.88
2018-04-24T05:53:10.993Z,936.85
2018-04-24T05:54:11.004Z,936.82
2018-04-24T05:55:11.019Z,936.84
2018-04-24T05:56:11.041Z,936.82
2018-04-24T05:57:11.051Z,936.84
2018-04-24T05:58:11.070Z,936.85
2018-04-24T05:59:11.076Z,936.86
2018-04-24T06:00:11.089Z,936.83
2018-04-24T06:01:11.104Z,936.80
2018-04-24T06:02:11.145Z,936.82
2018-04-24T06:03:11.204Z,936.78
2018-04-24T06:04:11.157Z,936.76
2018-04-24T06:05:11.170Z,936.75
2018-04-24T06:06:11.179Z,936.73
2018-04-24T06:07:11.189Z,936.73
2018-04-24T06:08:11.219Z,936.74
2018-04-24T06:09:11.223Z,936.73
2018-04-24T06:10:11.265Z,936.73
2018-04-24T06:11:11.274Z,936.75
2018-04-24T06:12:11.262Z,936.71
2018-04-24T06:13:11.305Z,936.73
2018-04-24T06:14:11.301Z,936.71
2018-04-24T06:15:11.397Z,936.71
2018-04-24T06:16:11.329Z,936.72
2018-04-24T06:17:11.358Z,936.74
2018-04-24T06:18:11.372Z,936.70
2018-04-24T06:19:11.364Z,936.69
2018-04-24T06:20:11.404Z,936.72
2018-04-24T06:21:11.415Z,936.66
2018-04-24T06:22:11.402Z,936.69
2018-04-24T06:23:11.426Z,936.71
2018-04-24T06:24:11.465Z,936.70
2018-04-24T06:25:11.446Z,936.69
2018-04-24T06:26:11.463Z,936.71
2018-04-24T06:27:11.470Z,936.71
2018-04-24T06:28:11.486Z,936.72
2018-04-24T06:29:11.536Z,936.75
2018-04-24T06:30:11.532Z,936.74
2018-04-24T06:31:11.556Z,936.75
2018-04-24T06:32:11.544Z,936.70
2018-04-24T06:33:11.587Z,936.73
2018-04-24T06:34:11.575Z,936.73
2018-04-24T06:35:11.595Z,936.68
2018-04-24T06:36:11.601Z,936.71
2018-04-24T06:37:11.641Z,936.73
2018-04-24T06:38:11.633Z,936.73
2018-04-24T06:39:11.673Z,936.75
2018-04-24T06:40:11.682Z,936.74
2018-04-24T06:41:11.703Z,936.73
2018-04-24T06:42:11.726Z,936.73
2018-04-24T06:43:11.703Z,936.77
2018-04-24T06:44:11.713Z,936.73
2018-04-24T06:45:11.733Z,936.74
2018-04-24T06:46:11.739Z,936.75
2018-04-24T06:47:11.758Z,936.72
2018-04-24T06:48:11.876Z,936.74
2018-04-24T06:49:11.801Z,936.75
2018-04-24T06:50:11.798Z,936.71
2018-04-24T06:51:11.812Z,936.75
2018-04-24T06:52:11.825Z,936.76
2018-04-24T06:53:11.839Z,936.74
2018-04-24T06:54:11.854Z,936.77
2018-04-24T06:55:11.870Z,936.75
2018-04-24T06:56:11.913Z,936.74
2018-04-24T06:57:11.902Z,936.76
2018-04-24T06:58:11.936Z,936.71
2018-04-24T06:59:11.928Z,936.76
2018-04-24T07:00:11.951Z,936.74
2018-04-24T07:01:11.955Z,936.75
2018-04-24T07:02:11.970Z,936.80
2018-04-24T07:03:11.984Z,936.80
2018-04-24T07:04:12.043Z,936.84
2018-04-24T07:05:12.013Z,936.81
2018-04-24T07:06:12.023Z,936.85
2018-04-24T07:07:12.050Z,936.85
2018-04-24T07:08:12.081Z,936.89
2018-04-24T07:09:12.077Z,936.91
2018-04-24T07:10:12.083Z,936.93
2018-04-24T07:11:12.093Z,936.92
2018-04-24T07:12:12.115Z,936.94
2018-04-24T07:13:12.151Z,936.94
2018-04-24T07:14:12.143Z,936.97
2018-04-24T07:15:12.143Z,936.95
2018-04-24T07:16:12.169Z,936.96
2018-04-24T07:17:12.182Z,936.96
2018-04-24T07:18:12.192Z,936.94
2018-04-24T07:19:12.205Z,936.95
2018-04-24T07:20:12.221Z,936.93
2018-04-24T07:21:12.259Z,936.95
2018-04-24T07:22:12.308Z,936.98
2018-04-24T07:23:12.272Z,936.97
2018-04-24T07:24:12.312Z,936.99
2018-04-24T07:25:12.321Z,937.02
2018-04-24T07:26:12.336Z,937.00
2018-04-24T07:27:12.400Z,937.02
2018-04-24T07:28:12.328Z,937.03
2018-04-24T07:29:12.345Z,937.04
2018-04-24T07:30:12.358Z,937.02
2018-04-24T07:31:12.447Z,937.01
2018-04-24T07:32:12.416Z,937.03
2018-04-24T07:33:12.503Z,937.03
2018-04-24T07:34:12.412Z,937.04
2018-04-24T07:35:12.434Z,937.03
2018-04-24T07:36:12.451Z,937.03
2018-04-24T07:37:12.457Z,937.07
2018-04-24T07:38:12.475Z,937.03
2018-04-24T07:39:12.482Z,937.05
2018-04-24T07:40:12.499Z,937.07
2018-04-24T07:41:12.523Z,937.04
2018-04-24T07:42:12.561Z,937.07
2018-04-24T07:43:12.568Z,937.11
2018-04-24T07:44:12.582Z,937.08
2018-04-24T07:45:12.590Z,937.08
2018-04-24T07:46:12.584Z,937.11
2018-04-24T07:47:12.599Z,937.06
2018-04-24T07:48:12.610Z,937.08
2018-04-24T07:49:12.650Z,937.08
2018-04-24T07:50:12.641Z,937.09
2018-04-24T07:51:12.666Z,937.09
2018-04-24T07:52:12.690Z,937.11
2018-04-24T07:53:12.709Z,937.14
2018-04-24T07:54:12.720Z,937.13
2018-04-24T07:55:12.723Z,937.11
2018-04-24T07:56:12.728Z,937.15
2018-04-24T07:57:12.735Z,937.11
2018-04-24T07:58:12.779Z,937.09
2018-04-24T07:59:12.771Z,937.10
2018-04-24T08:00:12.780Z,937.13
2018-04-24T08:01:12.791Z,937.10
2018-04-24T08:02:12.798Z,937.12
2018-04-24T08:03:12.820Z,937.16
2018-04-24T08:04:12.839Z,937.14
2018-04-24T08:05:12.858Z,937.14
2018-04-24T08:06:12.866Z,937.13
2018-04-24T08:07:12.901Z,937.15
2018-04-24T08:08:12.994Z,937.18
2018-04-24T08:09:12.905Z,937.20
2018-04-24T08:10:12.927Z,937.19
2018-04-24T08:11:12.941Z,937.20
2018-04-24T08:12:12.972Z,937.22
2018-04-24T08:13:13.057Z,937.23
2018-04-24T08:14:12.987Z,937.27
2018-04-24T08:15:12.998Z,937.30
2018-04-24T08:16:13.008Z,937.28
2018-04-24T08:17:13.046Z,937.31
2018-04-24T08:18:13.050Z,937.37
2018-04-24T08:19:13.051Z,937.36
2018-04-24T08:20:13.064Z,937.40
2018-04-24T08:21:13.082Z,937.40
2018-04-24T08:22:13.112Z,937.46
2018-04-24T08:23:13.095Z,937.41
2018-04-24T08:24:13.144Z,937.46
2018-04-24T08:25:13.151Z,937.46
2018-04-24T08:26:13.136Z,937.46
2018-04-24T08:27:13.177Z,937.45
2018-04-24T08:28:13.165Z,937.49
2018-04-24T08:29:13.205Z,937.46
2018-04-24T08:30:13.195Z,937.50
2018-04-24T08:31:13.235Z,937.52
2018-04-24T08:32:13.223Z,937.56
2018-04-24T08:33:13.230Z,937.54
2018-04-24T08:34:13.255Z,937.60
2018-04-24T08:35:13.264Z,937.62
2018-04-24T08:36:13.287Z,937.62
2018-04-24T08:37:13.286Z,937.63
2018-04-24T08:38:13.427Z,937.60
2018-04-24T08:39:13.322Z,937.65
2018-04-24T08:40:13.324Z,937.67
2018-04-24T08:41:13.340Z,937.68
2018-04-24T08:42:13.358Z,937.67
2018-04-24T08:43:13.404Z,937.65
2018-04-24T08:44:13.392Z,937.67
2018-04-24T08:45:13.425Z,937.64
2018-04-24T08:46:13.410Z,937.63
2018-04-24T08:47:13.457Z,937.64
2018-04-24T08:48:13.456Z,937.67
2018-04-24T08:49:13.450Z,937.70
2018-04-24T08:50:13.481Z,937.72
2018-04-24T08:51:13.486Z,937.73
2018-04-24T08:52:13.518Z,937.74
2018-04-24T08:53:13.610Z,937.77
2018-04-24T08:54:13.534Z,937.77
2018-04-24T08:55:13.563Z,937.79
2018-04-24T08:56:13.550Z,937.80
2018-04-24T08:57:13.588Z,937.82
2018-04-24T08:58:13.573Z,937.84
2018-04-24T08:59:13.589Z,937.86
2018-04-24T09:00:13.619Z,937.86
2018-04-24T09:01:13.647Z,937.86
2018-04-24T09:02:13.656Z,937.88
2018-04-24T09:03:13.646Z,937.89
2018-04-24T09:04:13.687Z,937.89
2018-04-24T09:05:13.702Z,937.95
2018-04-24T09:06:13.691Z,937.95
2018-04-24T09:07:13.729Z,937.99
2018-04-24T09:08:13.713Z,937.97
2018-04-24T09:09:13.827Z,937.98
2018-04-24T09:10:13.743Z,937.98
2018-04-24T09:11:13.786Z,937.98
2018-04-24T09:12:13.771Z,937.99
2018-04-24T09:13:13.781Z,937.99
2018-04-24T09:14:13.894Z,937.99
2018-04-24T09:15:13.844Z,938.03
2018-04-24T09:16:13.842Z,938.02
2018-04-24T09:17:13.861Z,937.99
2018-04-24T09:18:13.875Z,938.00
2018-04-24T09:19:13.871Z,937.98
2018-04-24T09:20:13.875Z,937.98
2018-04-24T09:21:13.955Z,938.00
2018-04-24T09:22:13.903Z,938.01
2018-04-24T09:23:13.923Z,937.96
2018-04-24T09:24:13.940Z,937.99
2018-04-24T09:25:13.951Z,938.01
2018-04-24T09:26:13.990Z,937.99
2018-04-24T09:27:14.092Z,937.99
2018-04-24T09:28:13.998Z,937.99
2018-04-24T09:29:14.031Z,937.94
2018-04-24T09:30:14.023Z,938.00
2018-04-24T09:31:14.074Z,937.99
2018-04-24T09:32:14.068Z,938.05
2018-04-24T09:33:14.061Z,938.05
2018-04-24T09:34:14.071Z,938.03
2018-04-24T09:35:14.089Z,938.05
2018-04-24T09:36:14.128Z,938.05
2018-04-24T09:37:14.152Z,938.07
2018-04-24T09:38:14.142Z,938.08
2018-04-24T09:39:14.145Z,938.08
2018-04-24T09:40:14.158Z,938.12
2018-04-24T09:41:14.197Z,938.09
2018-04-24T09:42:14.208Z,938.11
2018-04-24T09:43:14.210Z,938.12
2018-04-24T09:44:14.237Z,938.15
2018-04-24T09:45:14.225Z,938.17
2018-04-24T09:46:14.269Z,938.16
2018-04-24T09:47:14.282Z,938.19
2018-04-24T09:48:14.296Z,938.23
2018-04-24T09:49:14.289Z,938.25
2018-04-24T09:50:14.294Z,938.27
2018-04-24T09:51:14.384Z,938.31
2018-04-24T09:52:14.326Z,938.31
2018-04-24T09:53:14.353Z,938.34
2018-04-24T09:54:14.360Z,938.35
2018-04-24T09:55:14.367Z,938.36
2018-04-24T09:56:14.408Z,938.39
2018-04-24T09:57:14.395Z,938.36
2018-04-24T09:58:14.451Z,938.39
2018-04-24T09:59:14.428Z,938.40
2018-04-24T10:00:14.441Z,938.42
2018-04-24T10:01:14.479Z,938.40
2018-04-24T10:02:14.516Z,938.38
2018-04-24T10:03:14.506Z,938.37
2018-04-24T10:04:14.494Z,938.42
2018-04-24T10:05:14.529Z,938.41
2018-04-24T10:06:14.523Z,938.40
2018-04-24T10:07:14.598Z,938.43
2018-04-24T10:08:14.579Z,938.43
2018-04-24T10:09:14.564Z,938.47
2018-04-24T10:10:14.602Z,938.47
2018-04-24T10:11:14.613Z,938.46
2018-04-24T10:12:14.618Z,938.49
2018-04-24T10:13:14.619Z,938.48
2018-04-24T10:14:14.634Z,938.47
2018-04-24T10:15:14.646Z,938.50
2018-04-24T10:16:14.687Z,938.52
2018-04-24T10:17:14.675Z,938.52
2018-04-24T10:18:14.687Z,938.51
2018-04-24T10:19:14.827Z,938.51
2018-04-24T10:20:14.742Z,938.54
2018-04-24T10:21:14.739Z,938.54
2018-04-24T10:22:14.773Z,938.57
2018-04-24T10:23:14.784Z,938.51
2018-04-24T10:24:14.777Z,938.51
2018-04-24T10:25:14.802Z,938.55
2018-04-24T10:26:14.831Z,938.55
2018-04-24T10:27:14.895Z,938.54
2018-04-24T10:28:14.851Z,938.56
2018-04-24T10:29:14.975Z,938.54
2018-04-24T10:30:14.864Z,938.54
2018-04-24T10:31:14.874Z,938.55
2018-04-24T10:32:14.919Z,938.60
2018-04-24T10:33:14.915Z,938.60
2018-04-24T10:34:14.919Z,938.59
2018-04-24T10:35:14.945Z,938.58
2018-04-24T10:36:14.957Z,938.56
2018-04-24T10:37:14.999Z,938.55
2018-04-24T10:38:14.989Z,938.56
2018-04-24T10:39:14.996Z,938.58
2018-04-24T10:40:15.040Z,938.57
2018-04-24T10:41:15.029Z,938.59
2018-04-24T10:42:15.064Z,938.61
2018-04-24T10:43:15.084Z,938.58
2018-04-24T10:44:15.062Z,938.59
2018-04-24T10:45:15.083Z,938.58
2018-04-24T10:46:15.121Z,938.61
2018-04-24T10:47:15.137Z,938.61
2018-04-24T10:48:15.125Z,938.60
2018-04-24T10:49:15.147Z,938.63
2018-04-24T10:50:15.160Z,938.68
2018-04-24T10:51:15.248Z,938.63
2018-04-24T10:52:15.194Z,938.63
2018-04-24T10:53:15.231Z,938.65
2018-04-24T10:54:15.217Z,938.63
2018-04-24T10:55:15.244Z,938.64
2018-04-24T10:56:15.247Z,938.61
2018-04-24T10:57:15.267Z,938.66
2018-04-24T10:58:15.290Z,938.66
2018-04-24T10:59:15.672Z,938.70
2018-04-24T11:00:15.311Z,938.68
2018-04-24T11:01:15.329Z,938.72
2018-04-24T11:02:15.346Z,938.69
2018-04-24T11:03:15.366Z,938.72
2018-04-24T11:04:15.397Z,938.71
2018-04-24T11:05:15.390Z,938.74
2018-04-24T11:06:15.414Z,938.75
2018-04-24T11:07:15.421Z,938.75
2018-04-24T11:08:15.441Z,938.71
2018-04-24T11:09:15.466Z,938.70
2018-04-24T11:10:15.476Z,938.72
2018-04-24T11:11:15.507Z,938.71
2018-04-24T11:12:15.501Z,938.74
2018-04-24T11:13:15.515Z,938.75
2018-04-24T11:14:15.629Z,938.75
2018-04-24T11:15:15.574Z,938.75
2018-04-24T11:16:15.558Z,938.78
2018-04-24T11:17:15.607Z,938.80
2018-04-24T11:18:15.591Z,938.80
2018-04-24T11:19:15.620Z,938.77
2018-04-24T11:20:15.628Z,938.82
2018-04-24T11:21:15.694Z,938.87
2018-04-24T11:22:15.671Z,938.88
2018-04-24T11:23:15.677Z,938.84
2018-04-24T11:24:15.704Z,938.85
2018-04-24T11:25:15.735Z,938.83
2018-04-24T11:26:15.749Z,938.84
2018-04-24T11:27:15.739Z,938.87
2018-04-24T11:28:15.765Z,938.81
2018-04-24T11:29:15.776Z,938.85
2018-04-24T11:30:15.837Z,938.85
2018-04-24T11:31:16.040Z,938.86
2018-04-24T11:32:15.824Z,938.89
2018-04-24T11:33:15.845Z,938.87
2018-04-24T11:34:15.887Z,938.89
2018-04-24T11:35:15.896Z,938.90
2018-04-24T11:36:15.916Z,938.89
2018-04-24T11:37:15.912Z,938.89
2018-04-24T11:38:15.923Z,938.95
2018-04-24T11:39:15.957Z,938.92
2018-04-24T11:40:15.985Z,938.89
2018-04-24T11:41:16.007Z,938.87
2018-04-24T11:42:16.017Z,938.89
2018-04-24T11:43:16.008Z,938.93
2018-04-24T11:44:16.047Z,938.94
2018-04-24T11:45:16.046Z,938.91
2018-04-24T11:46:16.083Z,938.95
2018-04-24T11:47:16.103Z,938.98
2018-04-24T11:48:16.096Z,938.98
2018-04-24T11:49:16.143Z,938.95
2018-04-24T11:50:16.128Z,939.02
2018-04-24T11:51:16.145Z,939.05
2018-04-24T11:52:16.194Z,939.06
2018-04-24T11:53:16.181Z,939.11
2018-04-24T11:54:16.299Z,939.15
2018-04-24T11:55:16.415Z,939.14
2018-04-24T11:56:16.258Z,939.13
2018-04-24T11:57:16.277Z,939.17
2018-04-24T11:58:16.297Z,939.14
2018-04-24T11:59:16.308Z,939.19
2018-04-24T12:00:16.342Z,939.14
2018-04-24T12:01:16.320Z,939.18
2018-04-24T12:02:16.346Z,939.17
2018-04-24T12:03:16.363Z,939.22
2018-04-24T12:04:16.572Z,939.20
2018-04-24T12:05:16.406Z,939.23
2018-04-24T12:06:16.433Z,939.23
2018-04-24T12:07:16.426Z,939.23
2018-04-24T12:08:17.047Z,939.26
2018-04-24T12:09:16.526Z,939.27
2018-04-24T12:10:16.504Z,939.32
2018-04-24T12:11:16.495Z,939.33
2018-04-24T12:12:16.511Z,939.33
2018-04-24T12:13:16.533Z,939.35
2018-04-24T12:14:16.645Z,939.34
2018-04-24T12:15:16.770Z,939.29
2018-04-24T12:16:16.609Z,939.33
2018-04-24T12:17:16.634Z,939.33
2018-04-24T12:18:16.652Z,939.33
2018-04-24T12:19:16.668Z,939.38
2018-04-24T12:20:17.065Z,939.39
2018-04-24T12:21:16.701Z,939.39
2018-04-24T12:22:16.697Z,939.42
2018-04-24T12:23:16.722Z,939.39
2018-04-24T12:24:17.113Z,939.37
2018-04-24T12:25:16.785Z,939.41
2018-04-24T12:26:16.778Z,939.35
2018-04-24T12:27:16.784Z,939.38
2018-04-24T12:28:16.838Z,939.37